The Hangar Logo

METARs in Plain English
Latest METAR information for EGVN - BRIZE NORTON

EGVN 222050Z 22004KT 9999 SCT033 SCT110 11/09 Q1022 BLU NOSIG

In plain english is....

This is a METAR report for EGVN - BRIZE NORTON .
The report was made 48 minutes ago, at 20:50 UTC.
The wind was blowing at a speed of 4 knots (4.6 miles per hour, 2.1 metres per second) from the Southwest (220°).
The visibility was greater than 6.2 miles (greater than 10 kilometres).
There were scattered clouds at a height of 3300 feet (1006 metres) and scattered clouds at a height of 11000 feet (3353 metres).
The temperature was 11°C (52°F), a dew point of 9°C (48°F) and a relative humidity of 87.5%.
The altimeter setting (airfield QNH) was 1,022 hPa (30.18 inHg).
Other remarks BLU NOSIG.

UK Mainland

Ireland

Channel Islands

France

Other



Enter
Tel: 07092 887559 - Fax: 07092 183262

Terms of Use | Privacy Statement
Content copyright © 1999-2012 TheHangar.co.uk. All rights reserved.
Please send your questions, comments, or bug reports to the Webmaster.